KBHM/BHM METAR and TAF weather

Enter ICAO airport designator
Station Type Date Time Source
KBHM METAR 2018/07/16 23:53 UTC NOAA

KBHM 162353Z 13003KT 10SM SCT120 BKN250 28/23 A3002 RMK AO2 LTG DSNT NW SLP156 60003 T02780228 10294 20239 50002


Station Type Date Time Source
KBHM Decoded METAR 2018/07/16 23:53 UTC NOAA

BIRMINGHAM INT'L AIRPORT, AL, United States (KBHM) 33-34N 086-45W 197M
Jul 16, 2018 - 07:53 PM EDT / 2018.07.16 2353 UTC
Wind: from the SE (130 degrees) at 3 MPH (3 KT):0
Visibility: 10 mile(s):0
Sky conditions: mostly cloudy
Weather: Lightning observed
Temperature: 82.0 F (27.8 C)
Dew Point: 73.0 F (22.8 C)
Relative Humidity: 74%
Pressure (altimeter): 30.02 in. Hg (1016 hPa)
Pressure tendency: 0.01 inches (0.2 hPa) higher than three hours ago
ob: KBHM 162353Z 13003KT 10SM SCT120 BKN250 28/23 A3002 RMK AO2 LTG DSNT NW SLP156 60003 T02780228 10294 20239 50002
cycle: 0

Station Type Date Time Source
KBHM TAF 2018/07/16 19:12 UTC NOAA

TAF
AMD KBHM 161910Z 1619/1718 29006KT P6SM VCTS BKN050CB
FM170300 19003KT P6SM OVC200
FM171400 26003KT P6SM SCT250


Example: see airport list